createdAt,value
2023-04-01T00:01:37.078Z,2.87
2023-04-01T00:04:04.813Z,3.03
2023-04-01T00:06:32.225Z,3.33
2023-04-01T00:08:59.578Z,3.05
2023-04-01T00:11:28.326Z,3.00
2023-04-01T00:13:56.044Z,3.30
2023-04-01T00:16:23.425Z,2.87
2023-04-01T00:18:51.586Z,3.67
2023-04-01T00:21:19.167Z,3.85
2023-04-01T00:23:46.624Z,3.30
2023-04-01T00:26:15.285Z,3.30
2023-04-01T00:28:43.228Z,3.47
2023-04-01T00:31:11.318Z,4.03
2023-04-01T00:33:39.795Z,4.60
2023-04-01T00:36:15.047Z,4.35
2023-04-01T00:38:43.475Z,3.63
2023-04-01T00:41:15.828Z,3.80
2023-04-01T00:43:44.587Z,4.22
2023-04-01T00:46:12.098Z,4.35
2023-04-01T00:48:43.299Z,4.05
2023-04-01T00:51:15.466Z,3.87
2023-04-01T00:53:44.378Z,4.35
2023-04-01T00:56:16.906Z,4.22
2023-04-01T00:58:47.435Z,4.30
2023-04-01T01:01:15.401Z,4.03
2023-04-01T01:03:42.796Z,4.65
2023-04-01T01:06:27.507Z,5.00
2023-04-01T01:09:22.405Z,4.75
2023-04-01T01:12:01.848Z,4.68
2023-04-01T01:14:51.052Z,4.82
2023-04-01T01:17:34.768Z,4.57
2023-04-01T01:20:51.092Z,4.47
2023-04-01T01:23:39.878Z,4.30
2023-04-01T01:26:13.456Z,3.70
2023-04-01T01:29:06.000Z,4.85
2023-04-01T01:31:42.753Z,4.18
2023-04-01T01:36:46.077Z,3.05
2023-04-01T01:39:13.460Z,3.90
2023-04-01T01:41:40.933Z,3.45
2023-04-01T01:44:09.254Z,3.85
2023-04-01T01:46:36.722Z,3.22
2023-04-01T01:49:04.134Z,3.62
2023-04-01T01:51:31.772Z,3.60
2023-04-01T01:53:59.229Z,3.53
2023-04-01T01:56:28.166Z,3.28
2023-04-01T01:59:01.765Z,3.62
2023-04-01T02:01:30.426Z,3.42
2023-04-01T02:03:58.886Z,3.95
2023-04-01T02:06:28.770Z,3.50
2023-04-01T02:09:02.165Z,3.33
2023-04-01T02:11:39.486Z,4.47
2023-04-01T02:14:10.447Z,4.03
2023-04-01T02:17:01.332Z,3.10
2023-04-01T02:19:32.580Z,3.58
2023-04-01T02:22:02.046Z,3.28
2023-04-01T02:24:30.167Z,3.70
2023-04-01T02:26:57.493Z,3.22
2023-04-01T02:29:26.416Z,3.37
2023-04-01T02:31:53.982Z,3.05
2023-04-01T02:34:22.535Z,3.33
2023-04-01T02:36:50.391Z,2.97
2023-04-01T02:39:17.859Z,3.20
2023-04-01T02:41:46.088Z,3.03
2023-04-01T02:44:14.201Z,2.70
2023-04-01T02:46:41.852Z,2.90
2023-04-01T02:49:09.540Z,2.47
2023-04-01T02:51:36.949Z,3.12
2023-04-01T02:54:04.485Z,2.95
2023-04-01T02:56:32.182Z,3.22
2023-04-01T02:58:59.561Z,2.55
2023-04-01T03:01:27.025Z,2.92
2023-04-01T03:03:54.714Z,2.55
2023-04-01T03:06:22.057Z,2.70
2023-04-01T03:08:49.491Z,2.50
2023-04-01T03:11:17.263Z,3.08
2023-04-01T03:13:44.647Z,3.33
2023-04-01T03:16:12.131Z,2.03
2023-04-01T03:18:39.720Z,2.60
2023-04-01T03:21:20.509Z,2.40
2023-04-01T03:23:48.152Z,2.37
2023-04-01T03:26:15.728Z,2.60
2023-04-01T03:28:43.799Z,2.25
2023-04-01T03:31:11.578Z,2.17
2023-04-01T03:33:39.329Z,2.85
2023-04-01T03:36:07.452Z,2.50
2023-04-01T03:38:35.807Z,2.35
2023-04-01T03:41:03.209Z,2.40
2023-04-01T03:43:30.856Z,1.90
2023-04-01T03:45:59.062Z,1.83
2023-04-01T03:48:26.812Z,1.90
2023-04-01T03:50:54.509Z,1.85
2023-04-01T03:53:22.212Z,1.90
2023-04-01T03:55:49.797Z,2.03
2023-04-01T03:58:17.155Z,1.92
2023-04-01T04:00:44.858Z,2.25
2023-04-01T04:03:12.730Z,1.70
2023-04-01T04:05:47.453Z,1.98
2023-04-01T04:08:15.784Z,1.73
2023-04-01T04:10:43.158Z,2.00
2023-04-01T04:13:10.661Z,2.00
2023-04-01T04:15:39.599Z,1.50
2023-04-01T04:18:07.781Z,1.60
2023-04-01T04:20:35.993Z,2.30
2023-04-01T04:23:03.795Z,1.98
2023-04-01T04:25:33.062Z,2.00
2023-04-01T04:28:01.391Z,1.62
2023-04-01T04:30:29.416Z,2.10
2023-04-01T04:32:56.880Z,1.87
2023-04-01T04:35:24.386Z,1.90
2023-04-01T04:37:52.131Z,1.42
2023-04-01T04:40:19.689Z,1.83
2023-04-01T04:42:47.080Z,1.87
2023-04-01T04:45:14.956Z,1.83
2023-04-01T04:47:42.769Z,1.70
2023-04-01T04:50:10.881Z,2.05
2023-04-01T04:52:40.664Z,1.87
2023-04-01T04:55:08.437Z,2.40
2023-04-01T04:57:35.871Z,1.80
2023-04-01T05:00:03.965Z,1.90
2023-04-01T05:02:33.224Z,1.95
2023-04-01T05:05:01.044Z,2.22
2023-04-01T05:07:29.190Z,2.20
2023-04-01T05:09:56.601Z,1.92
2023-04-01T05:12:23.937Z,2.08
2023-04-01T05:14:52.590Z,2.17
2023-04-01T05:17:19.967Z,2.37
2023-04-01T05:19:47.493Z,2.30
2023-04-01T05:22:15.668Z,1.87
2023-04-01T05:24:43.294Z,2.12
2023-04-01T05:27:10.665Z,2.10
2023-04-01T05:29:38.676Z,2.15
2023-04-01T05:32:06.403Z,2.03
2023-04-01T05:34:33.982Z,1.80
2023-04-01T05:37:01.613Z,2.00
2023-04-01T05:39:29.427Z,2.35
2023-04-01T05:41:56.929Z,2.20
2023-04-01T05:44:24.558Z,1.95
2023-04-01T05:46:54.806Z,1.73
2023-04-01T05:49:22.381Z,2.00
2023-04-01T05:51:50.595Z,2.28
2023-04-01T05:54:18.473Z,2.12
2023-04-01T05:56:47.657Z,2.47
2023-04-01T05:59:16.405Z,2.30
2023-04-01T06:01:43.797Z,2.12
2023-04-01T06:04:14.714Z,1.62
2023-04-01T06:06:42.079Z,2.50
2023-04-01T06:09:15.575Z,2.83
2023-04-01T06:12:06.690Z,2.15
2023-04-01T06:14:43.548Z,2.30
2023-04-01T06:17:41.924Z,2.00
2023-04-01T06:20:21.555Z,2.20
2023-04-01T06:22:58.642Z,2.10
2023-04-01T06:25:41.340Z,2.22
2023-04-01T06:28:37.044Z,2.30
2023-04-01T06:31:15.913Z,2.05
2023-04-01T06:34:07.888Z,2.28
2023-04-01T06:36:57.078Z,2.30
2023-04-01T06:39:46.597Z,2.72
2023-04-01T06:42:22.899Z,2.47
2023-04-01T06:45:04.273Z,2.15
2023-04-01T06:47:55.481Z,2.20
2023-04-01T06:50:39.141Z,2.75
2023-04-01T06:53:17.573Z,2.60
2023-04-01T06:55:57.295Z,2.40
2023-04-01T06:58:25.741Z,2.65
2023-04-01T07:01:02.190Z,2.45
2023-04-01T07:03:37.432Z,3.15
2023-04-01T07:06:07.229Z,2.90
2023-04-01T07:08:38.890Z,2.90
2023-04-01T07:11:07.552Z,2.60
2023-04-01T07:13:55.739Z,2.87
2023-04-01T07:16:36.922Z,2.58
2023-04-01T07:19:05.536Z,2.62
2023-04-01T07:21:37.487Z,2.85
2023-04-01T07:24:07.930Z,3.30
2023-04-01T07:26:36.106Z,2.92
2023-04-01T07:29:07.127Z,2.90
2023-04-01T07:31:40.907Z,2.80
2023-04-01T07:34:23.902Z,2.80
2023-04-01T07:37:02.459Z,2.53
2023-04-01T07:39:39.120Z,2.92
2023-04-01T07:42:09.976Z,3.75
2023-04-01T07:45:00.404Z,2.80
2023-04-01T07:48:08.766Z,3.20
2023-04-01T07:51:09.918Z,3.25
2023-04-01T07:54:02.293Z,3.30
2023-04-01T07:56:50.614Z,4.60
2023-04-01T07:59:24.043Z,4.07
2023-04-01T08:02:23.253Z,3.85
2023-04-01T08:05:28.528Z,3.30
2023-04-01T08:08:09.770Z,3.30
2023-04-01T08:11:23.068Z,5.20
2023-04-01T08:13:59.985Z,3.75
2023-04-01T08:16:35.920Z,3.58
2023-04-01T08:19:40.990Z,3.00
2023-04-01T08:22:22.719Z,3.92
2023-04-01T08:24:50.872Z,3.67
2023-04-01T08:27:35.377Z,3.53
2023-04-01T08:30:04.226Z,3.90
2023-04-01T08:32:38.077Z,4.60
2023-04-01T08:35:10.564Z,3.30
2023-04-01T08:37:40.273Z,3.37
2023-04-01T08:40:35.406Z,3.53
2023-04-01T08:43:41.152Z,3.60
2023-04-01T08:46:11.485Z,3.00
2023-04-01T08:49:06.427Z,3.22
2023-04-01T08:52:28.122Z,3.05
2023-04-01T08:55:17.526Z,3.25
2023-04-01T08:58:10.052Z,3.10
2023-04-01T09:01:26.408Z,2.97
2023-04-01T09:04:24.168Z,2.97
2023-04-01T09:07:10.880Z,3.70
2023-04-01T09:10:05.231Z,3.85
2023-04-01T09:12:55.954Z,3.53
2023-04-01T09:15:44.090Z,2.80
2023-04-01T09:18:33.988Z,3.83
2023-04-01T09:21:23.354Z,3.20
2023-04-01T09:24:28.462Z,3.60
2023-04-01T09:27:19.043Z,3.47
2023-04-01T09:29:57.833Z,4.10
2023-04-01T09:32:59.434Z,4.37
2023-04-01T09:35:37.389Z,4.28
2023-04-01T09:38:23.970Z,4.65
2023-04-01T09:41:08.446Z,4.45
2023-04-01T09:44:02.663Z,4.85
2023-04-01T09:46:52.797Z,4.93
2023-04-01T09:49:39.039Z,4.85
2023-04-01T09:52:26.402Z,4.55
2023-04-01T09:55:43.110Z,4.62
2023-04-01T09:58:47.941Z,5.40
2023-04-01T10:01:55.732Z,4.70
2023-04-01T10:04:42.434Z,3.87
2023-04-01T10:12:38.283Z,4.32
2023-04-01T10:15:29.334Z,4.25
2023-04-01T10:18:24.556Z,4.12
2023-04-01T10:20:55.119Z,4.22
2023-04-01T10:23:47.039Z,4.10
2023-04-01T10:26:28.457Z,4.28
2023-04-01T10:29:12.140Z,4.47
2023-04-01T10:32:08.706Z,4.45
2023-04-01T10:35:23.744Z,5.22
2023-04-01T10:37:54.065Z,5.10
2023-04-01T10:40:29.516Z,5.30
2023-04-01T10:43:15.109Z,4.80
2023-04-01T10:45:47.751Z,5.30
2023-04-01T10:48:41.624Z,4.93
2023-04-01T10:51:32.455Z,5.60
2023-04-01T10:54:33.941Z,5.10
2023-04-01T10:57:18.069Z,5.10
2023-04-01T11:00:24.525Z,5.22
2023-04-01T11:03:04.206Z,5.57
2023-04-01T11:05:52.946Z,6.40
2023-04-01T11:11:29.336Z,5.50
2023-04-01T11:14:30.659Z,5.47
2023-04-01T11:17:16.396Z,6.15
2023-04-01T11:20:03.578Z,6.45
2023-04-01T11:25:10.096Z,6.32
2023-04-01T11:27:52.287Z,6.82
2023-04-01T11:30:42.077Z,5.82
2023-04-01T11:33:20.535Z,6.80
2023-04-01T11:36:07.195Z,6.43
2023-04-01T11:38:48.354Z,6.47
2023-04-01T11:41:42.663Z,6.60
2023-04-01T11:44:18.381Z,7.35
2023-04-01T11:47:01.129Z,10.85
2023-04-01T11:50:02.413Z,7.25
2023-04-01T11:52:42.835Z,7.07
2023-04-01T11:55:13.255Z,6.70
2023-04-01T11:57:45.181Z,9.57
2023-04-01T12:00:27.364Z,6.65
2023-04-01T12:03:04.125Z,7.40
2023-04-01T12:05:48.557Z,6.70
2023-04-01T12:08:42.275Z,6.30
2023-04-01T12:11:23.209Z,7.03
2023-04-01T12:14:20.583Z,9.23
2023-04-01T12:16:52.769Z,6.57
2023-04-01T12:19:42.562Z,6.75
2023-04-01T12:22:21.417Z,5.80
2023-04-01T12:24:52.986Z,5.97
2023-04-01T12:27:20.456Z,6.40
2023-04-01T12:29:55.722Z,8.13
2023-04-01T12:32:37.306Z,7.07
2023-04-01T12:35:07.623Z,7.07
2023-04-01T12:38:02.857Z,7.22
2023-04-01T12:40:32.809Z,6.82
2023-04-01T12:43:18.903Z,7.60
2023-04-01T12:46:07.222Z,7.57
2023-04-01T12:49:04.315Z,7.10
2023-04-01T12:52:11.388Z,7.57
2023-04-01T12:55:04.338Z,7.57
2023-04-01T12:57:46.952Z,6.90
2023-04-01T13:00:24.834Z,6.80
2023-04-01T13:03:11.171Z,6.75
2023-04-01T13:06:00.669Z,7.07
2023-04-01T13:08:52.675Z,6.90
2023-04-01T13:11:47.585Z,7.70
2023-04-01T13:14:36.849Z,7.20
2023-04-01T13:17:19.810Z,7.15
2023-04-01T13:20:22.134Z,6.37
2023-04-01T13:23:16.558Z,7.00
2023-04-01T13:25:51.036Z,6.68
2023-04-01T13:28:27.362Z,7.40
2023-04-01T13:31:16.598Z,6.30
2023-04-01T13:33:46.881Z,6.78
2023-04-01T13:36:38.957Z,7.03
2023-04-01T13:39:14.281Z,6.57
2023-04-01T13:42:02.862Z,6.43
2023-04-01T13:44:46.444Z,6.72
2023-04-01T13:47:44.869Z,6.37
2023-04-01T13:50:32.382Z,7.28
2023-04-01T13:53:41.627Z,6.45
2023-04-01T13:56:16.378Z,5.95
2023-04-01T13:58:53.726Z,5.40
2023-04-01T14:01:28.039Z,5.72
2023-04-01T14:03:58.705Z,4.78
2023-04-01T14:07:08.133Z,5.18
2023-04-01T14:09:57.541Z,5.82
2023-04-01T14:12:31.489Z,4.20
2023-04-01T14:15:22.490Z,4.18
2023-04-01T14:18:05.047Z,4.75
2023-04-01T14:21:10.085Z,7.78
2023-04-01T14:23:48.388Z,5.62
2023-04-01T14:26:25.253Z,5.03
2023-04-01T14:29:10.720Z,6.47
2023-04-01T14:31:57.880Z,6.62
2023-04-01T14:34:56.472Z,5.12
2023-04-01T14:38:06.185Z,6.25
2023-04-01T14:40:54.961Z,7.40
2023-04-01T14:43:38.770Z,5.95
2023-04-01T14:46:18.317Z,6.18
2023-04-01T14:48:57.394Z,11.12
2023-04-01T14:51:33.515Z,6.03
2023-04-01T14:54:13.294Z,5.93
2023-04-01T14:56:45.524Z,5.18
2023-04-01T14:59:22.220Z,5.72
2023-04-01T15:01:49.537Z,5.60
2023-04-01T15:04:35.593Z,6.45
2023-04-01T15:07:20.246Z,10.05
2023-04-01T15:10:30.535Z,7.03
2023-04-01T15:13:28.285Z,5.85
2023-04-01T15:16:28.645Z,6.12
2023-04-01T15:19:12.953Z,6.10
2023-04-01T15:21:55.752Z,8.45
2023-04-01T15:24:27.798Z,6.12
2023-04-01T15:27:04.989Z,5.75
2023-04-01T15:29:54.202Z,5.78
2023-04-01T15:32:26.874Z,5.70
2023-04-01T15:35:12.359Z,5.90
2023-04-01T15:37:54.972Z,6.00
2023-04-01T15:40:30.559Z,6.55
2023-04-01T15:43:39.208Z,6.82
2023-04-01T15:46:13.809Z,7.03
2023-04-01T15:48:53.684Z,14.55
2023-04-01T15:51:33.189Z,8.35
2023-04-01T15:54:30.073Z,7.80
2023-04-01T15:57:06.235Z,7.80
2023-04-01T16:05:09.229Z,6.85
2023-04-01T16:07:58.550Z,15.95
2023-04-01T16:10:35.429Z,8.38
2023-04-01T16:13:11.860Z,24.37
2023-04-01T16:16:17.062Z,7.07
2023-04-01T16:18:56.266Z,6.03
2023-04-01T16:21:51.142Z,6.20
2023-04-01T16:24:35.445Z,6.03
2023-04-01T16:27:09.406Z,8.60
2023-04-01T16:29:46.040Z,7.15
2023-04-01T16:32:24.666Z,6.68
2023-04-01T16:35:03.041Z,6.10
2023-04-01T16:37:40.839Z,6.45
2023-04-01T16:40:35.876Z,7.05
2023-04-01T16:43:27.945Z,6.55
2023-04-01T16:46:14.746Z,6.45
2023-04-01T16:49:02.138Z,6.70
2023-04-01T16:51:51.856Z,6.75
2023-04-01T16:54:22.368Z,6.05
2023-04-01T16:57:09.851Z,5.85
2023-04-01T16:59:41.174Z,6.72
2023-04-01T17:02:08.431Z,7.10
2023-04-01T17:04:43.575Z,6.85
2023-04-01T17:07:29.549Z,6.32
2023-04-01T17:10:19.526Z,6.57
2023-04-01T17:13:08.780Z,5.80
2023-04-01T17:15:56.249Z,6.07
2023-04-01T17:18:35.165Z,6.28
2023-04-01T17:21:06.942Z,6.05
2023-04-01T17:23:39.067Z,6.65
2023-04-01T17:26:29.974Z,6.65
2023-04-01T17:29:24.541Z,6.30
2023-04-01T17:31:59.020Z,5.85
2023-04-01T17:34:53.420Z,5.47
2023-04-01T17:38:03.625Z,5.72
2023-04-01T17:40:54.808Z,5.43
2023-04-01T17:43:47.042Z,6.25
2023-04-01T17:46:45.814Z,5.43
2023-04-01T17:49:32.056Z,6.05
2023-04-01T17:52:07.146Z,6.20
2023-04-01T17:54:40.720Z,5.12
2023-04-01T17:57:32.206Z,5.70
2023-04-01T18:00:08.725Z,5.20
2023-04-01T18:03:01.078Z,4.78
2023-04-01T18:05:53.197Z,7.32
2023-04-01T18:08:46.724Z,5.82
2023-04-01T18:11:27.085Z,5.90
2023-04-01T18:14:17.889Z,5.43
2023-04-01T18:16:52.260Z,5.55
2023-04-01T18:19:25.595Z,5.62
2023-04-01T18:22:26.915Z,6.50
2023-04-01T18:25:02.172Z,6.20
2023-04-01T18:27:39.517Z,5.83
2023-04-01T18:30:24.842Z,5.93
2023-04-01T18:32:59.155Z,6.40
2023-04-01T18:35:46.258Z,5.30
2023-04-01T18:38:15.442Z,6.20
2023-04-01T18:40:44.589Z,6.65
2023-04-01T18:43:28.630Z,6.65
2023-04-01T18:45:59.389Z,6.75
2023-04-01T18:48:51.211Z,8.50
2023-04-01T18:51:21.721Z,7.93
2023-04-01T18:53:53.803Z,7.00
2023-04-01T18:56:33.526Z,7.82
2023-04-01T18:59:07.782Z,5.82
2023-04-01T19:01:40.579Z,6.07
2023-04-01T19:04:38.273Z,6.30
2023-04-01T19:07:40.598Z,5.97
2023-04-01T19:10:27.761Z,6.32
2023-04-01T19:13:23.757Z,5.25
2023-04-01T19:16:07.183Z,5.65
2023-04-01T19:18:41.996Z,5.47
2023-04-01T19:21:21.324Z,5.47
2023-04-01T19:24:16.762Z,5.43
2023-04-01T19:26:49.949Z,5.72
2023-04-01T19:29:29.528Z,5.43
2023-04-01T19:32:02.494Z,5.30
2023-04-01T19:34:39.087Z,4.62
2023-04-01T19:37:21.901Z,5.20
2023-04-01T19:39:56.155Z,5.18
2023-04-01T19:42:55.566Z,4.70
2023-04-01T19:45:47.424Z,5.43
2023-04-01T19:48:43.206Z,4.93
2023-04-01T19:54:21.904Z,4.75
2023-04-01T19:57:01.145Z,5.12
2023-04-01T20:00:01.256Z,4.85
2023-04-01T20:02:53.809Z,4.90
2023-04-01T20:05:31.251Z,5.72
2023-04-01T20:08:23.203Z,6.12
2023-04-01T20:11:17.024Z,5.72
2023-04-01T20:14:14.491Z,5.78
2023-04-01T20:16:51.083Z,5.53
2023-04-01T20:19:36.134Z,6.50
2023-04-01T20:22:05.811Z,5.17
2023-04-01T20:24:43.295Z,5.43
2023-04-01T20:27:13.745Z,5.15
2023-04-01T20:29:56.228Z,5.00
2023-04-01T20:32:51.069Z,5.35
2023-04-01T20:35:38.764Z,5.18
2023-04-01T20:38:44.431Z,5.65
2023-04-01T20:41:25.010Z,4.78
2023-04-01T20:44:06.196Z,5.05
2023-04-01T20:47:02.718Z,4.70
2023-04-01T20:50:06.186Z,5.37
2023-04-01T20:52:37.717Z,5.35
2023-04-01T20:55:23.929Z,5.22
2023-04-01T20:58:00.990Z,6.20
2023-04-01T21:00:39.615Z,6.05
2023-04-01T21:03:25.920Z,6.40
2023-04-01T21:06:27.711Z,5.85
2023-04-01T21:09:23.436Z,5.97
2023-04-01T21:11:53.920Z,6.70
2023-04-01T21:14:45.814Z,7.55
2023-04-01T21:17:18.762Z,7.12
2023-04-01T21:20:05.280Z,7.22
2023-04-01T21:23:09.769Z,6.28
2023-04-01T21:25:48.826Z,8.55
2023-04-01T21:28:38.138Z,7.90
2023-04-01T21:31:07.280Z,8.48
2023-04-01T21:34:06.387Z,7.65
2023-04-01T21:36:44.298Z,7.15
2023-04-01T21:39:42.949Z,6.30
2023-04-01T21:42:25.206Z,6.32
2023-04-01T21:45:14.177Z,5.53
2023-04-01T21:47:47.442Z,5.87
2023-04-01T21:50:24.013Z,6.62
2023-04-01T21:53:09.425Z,5.75
2023-04-01T21:56:01.242Z,5.82
2023-04-01T21:58:28.543Z,5.78
2023-04-01T22:01:26.527Z,6.05
2023-04-01T22:04:00.235Z,6.40
2023-04-01T22:06:42.030Z,5.75
2023-04-01T22:09:22.503Z,5.20
2023-04-01T22:11:55.215Z,5.40
2023-04-01T22:14:47.080Z,5.95
2023-04-01T22:17:14.703Z,5.28
2023-04-01T22:20:22.520Z,5.97
2023-04-01T22:22:58.530Z,5.57
2023-04-01T22:25:27.272Z,6.10
2023-04-01T22:27:59.298Z,5.28
2023-04-01T22:31:05.419Z,5.75
2023-04-01T22:36:25.017Z,5.47
2023-04-01T22:39:11.623Z,4.78
2023-04-01T22:41:55.112Z,4.75
2023-04-01T22:44:33.578Z,5.00
2023-04-01T22:47:06.347Z,5.10
2023-04-01T22:49:35.711Z,4.18
2023-04-01T22:52:06.483Z,3.80
2023-04-01T22:54:38.058Z,3.85
2023-04-01T22:57:30.323Z,4.10
2023-04-01T23:00:20.048Z,3.72
2023-04-01T23:03:01.417Z,3.15
2023-04-01T23:05:28.803Z,3.25
2023-04-01T23:08:32.292Z,3.15
2023-04-01T23:11:01.044Z,3.12
2023-04-01T23:13:42.876Z,3.10
2023-04-01T23:16:10.456Z,3.00
2023-04-01T23:19:18.561Z,2.90
2023-04-01T23:21:47.568Z,2.90
2023-04-01T23:24:37.067Z,2.50
2023-04-01T23:27:05.988Z,2.70
2023-04-01T23:29:36.972Z,2.87
2023-04-01T23:32:04.396Z,3.22
2023-04-01T23:34:32.339Z,2.55
2023-04-01T23:37:17.129Z,2.72
2023-04-01T23:39:46.206Z,2.87
2023-04-01T23:42:32.922Z,2.72
2023-04-01T23:45:05.271Z,2.65
2023-04-01T23:47:38.474Z,2.33
2023-04-01T23:50:12.899Z,2.30
2023-04-01T23:52:42.856Z,3.03
2023-04-01T23:55:19.868Z,2.60
2023-04-01T23:58:06.080Z,2.53
